sensor_id;sensor_type;location;lat;lon;timestamp;P1;durP1;ratioP1;P2;durP2;ratioP2
24891;SDS011;12954;50.688;10.908;2023-02-28T00:01:32;6.60;;;3.75;;
24891;SDS011;12954;50.688;10.908;2023-02-28T00:04:01;6.70;;;4.28;;
24891;SDS011;12954;50.688;10.908;2023-02-28T00:06:30;3.28;;;2.60;;
24891;SDS011;12954;50.688;10.908;2023-02-28T00:08:58;3.00;;;2.20;;
24891;SDS011;12954;50.688;10.908;2023-02-28T00:11:26;3.42;;;2.60;;
24891;SDS011;12954;50.688;10.908;2023-02-28T00:13:55;3.40;;;2.03;;
24891;SDS011;12954;50.688;10.908;2023-02-28T00:16:25;3.25;;;2.35;;
24891;SDS011;12954;50.688;10.908;2023-02-28T00:18:53;3.70;;;2.53;;
24891;SDS011;12954;50.688;10.908;2023-02-28T00:21:22;3.53;;;2.47;;
24891;SDS011;12954;50.688;10.908;2023-02-28T00:23:50;4.38;;;2.40;;
24891;SDS011;12954;50.688;10.908;2023-02-28T00:26:18;5.57;;;2.55;;
24891;SDS011;12954;50.688;10.908;2023-02-28T00:28:47;6.20;;;2.85;;
24891;SDS011;12954;50.688;10.908;2023-02-28T00:31:16;3.88;;;2.15;;
24891;SDS011;12954;50.688;10.908;2023-02-28T00:33:46;3.65;;;2.22;;
24891;SDS011;12954;50.688;10.908;2023-02-28T00:36:14;4.57;;;2.53;;
24891;SDS011;12954;50.688;10.908;2023-02-28T00:38:43;4.10;;;2.72;;
24891;SDS011;12954;50.688;10.908;2023-02-28T00:41:11;5.63;;;2.65;;
24891;SDS011;12954;50.688;10.908;2023-02-28T00:43:40;3.47;;;2.70;;
24891;SDS011;12954;50.688;10.908;2023-02-28T00:46:09;2.70;;;2.30;;
24891;SDS011;12954;50.688;10.908;2023-02-28T00:48:37;4.38;;;2.80;;
24891;SDS011;12954;50.688;10.908;2023-02-28T00:51:07;4.68;;;2.70;;
24891;SDS011;12954;50.688;10.908;2023-02-28T00:53:36;3.95;;;2.80;;
24891;SDS011;12954;50.688;10.908;2023-02-28T00:56:05;4.20;;;2.83;;
24891;SDS011;12954;50.688;10.908;2023-02-28T00:58:33;2.85;;;2.40;;
24891;SDS011;12954;50.688;10.908;2023-02-28T01:01:02;4.65;;;3.40;;
24891;SDS011;12954;50.688;10.908;2023-02-28T01:03:30;4.07;;;2.97;;
24891;SDS011;12954;50.688;10.908;2023-02-28T01:05:58;5.32;;;3.20;;
24891;SDS011;12954;50.688;10.908;2023-02-28T01:08:28;3.78;;;3.15;;
24891;SDS011;12954;50.688;10.908;2023-02-28T01:10:57;4.00;;;3.30;;
24891;SDS011;12954;50.688;10.908;2023-02-28T01:13:25;5.78;;;3.63;;
24891;SDS011;12954;50.688;10.908;2023-02-28T01:15:54;4.07;;;2.85;;
24891;SDS011;12954;50.688;10.908;2023-02-28T01:18:23;5.68;;;3.70;;
24891;SDS011;12954;50.688;10.908;2023-02-28T01:20:52;6.60;;;3.03;;
24891;SDS011;12954;50.688;10.908;2023-02-28T01:23:20;4.95;;;3.10;;
24891;SDS011;12954;50.688;10.908;2023-02-28T01:25:51;4.40;;;3.30;;
24891;SDS011;12954;50.688;10.908;2023-02-28T01:28:20;4.45;;;3.20;;
24891;SDS011;12954;50.688;10.908;2023-02-28T01:30:49;4.75;;;3.20;;
24891;SDS011;12954;50.688;10.908;2023-02-28T01:33:17;4.25;;;3.08;;
24891;SDS011;12954;50.688;10.908;2023-02-28T01:35:46;4.50;;;3.50;;
24891;SDS011;12954;50.688;10.908;2023-02-28T01:38:14;4.03;;;3.25;;
24891;SDS011;12954;50.688;10.908;2023-02-28T01:40:48;5.32;;;3.67;;
24891;SDS011;12954;50.688;10.908;2023-02-28T01:43:21;5.32;;;3.13;;
24891;SDS011;12954;50.688;10.908;2023-02-28T01:45:51;4.93;;;3.45;;
24891;SDS011;12954;50.688;10.908;2023-02-28T01:48:21;4.95;;;3.45;;
24891;SDS011;12954;50.688;10.908;2023-02-28T01:50:52;4.80;;;3.70;;
24891;SDS011;12954;50.688;10.908;2023-02-28T01:53:26;5.80;;;3.33;;
24891;SDS011;12954;50.688;10.908;2023-02-28T01:55:59;5.10;;;3.80;;
24891;SDS011;12954;50.688;10.908;2023-02-28T01:58:29;4.97;;;3.58;;
24891;SDS011;12954;50.688;10.908;2023-02-28T02:00:58;4.30;;;3.20;;
24891;SDS011;12954;50.688;10.908;2023-02-28T02:03:29;5.20;;;3.63;;
24891;SDS011;12954;50.688;10.908;2023-02-28T02:05:58;6.13;;;4.20;;
24891;SDS011;12954;50.688;10.908;2023-02-28T02:08:28;5.35;;;3.75;;
24891;SDS011;12954;50.688;10.908;2023-02-28T02:10:57;5.35;;;3.58;;
24891;SDS011;12954;50.688;10.908;2023-02-28T02:13:37;5.72;;;4.25;;
24891;SDS011;12954;50.688;10.908;2023-02-28T02:16:28;5.88;;;3.78;;
24891;SDS011;12954;50.688;10.908;2023-02-28T02:19:13;4.47;;;3.55;;
24891;SDS011;12954;50.688;10.908;2023-02-28T02:22:08;5.22;;;3.78;;
24891;SDS011;12954;50.688;10.908;2023-02-28T02:27:57;5.43;;;3.85;;
24891;SDS011;12954;50.688;10.908;2023-02-28T02:30:48;5.85;;;3.60;;
24891;SDS011;12954;50.688;10.908;2023-02-28T02:33:45;5.22;;;4.00;;
24891;SDS011;12954;50.688;10.908;2023-02-28T02:36:45;6.35;;;3.97;;
24891;SDS011;12954;50.688;10.908;2023-02-28T02:39:19;6.70;;;4.30;;
24891;SDS011;12954;50.688;10.908;2023-02-28T02:41:59;5.72;;;3.92;;
24891;SDS011;12954;50.688;10.908;2023-02-28T02:44:34;5.05;;;3.97;;
24891;SDS011;12954;50.688;10.908;2023-02-28T02:47:10;5.95;;;3.75;;
24891;SDS011;12954;50.688;10.908;2023-02-28T02:49:42;4.65;;;3.92;;
24891;SDS011;12954;50.688;10.908;2023-02-28T02:52:17;7.07;;;3.67;;
24891;SDS011;12954;50.688;10.908;2023-02-28T02:54:48;4.75;;;3.58;;
24891;SDS011;12954;50.688;10.908;2023-02-28T02:57:23;5.28;;;3.60;;
24891;SDS011;12954;50.688;10.908;2023-02-28T02:59:55;5.93;;;3.88;;
24891;SDS011;12954;50.688;10.908;2023-02-28T03:02:25;6.05;;;3.75;;
24891;SDS011;12954;50.688;10.908;2023-02-28T03:05:01;5.22;;;3.65;;
24891;SDS011;12954;50.688;10.908;2023-02-28T03:12:56;6.57;;;4.05;;
24891;SDS011;12954;50.688;10.908;2023-02-28T03:15:38;6.63;;;4.20;;
24891;SDS011;12954;50.688;10.908;2023-02-28T03:18:21;5.28;;;3.63;;
24891;SDS011;12954;50.688;10.908;2023-02-28T03:20:56;4.53;;;3.80;;
24891;SDS011;12954;50.688;10.908;2023-02-28T03:23:38;4.90;;;3.75;;
24891;SDS011;12954;50.688;10.908;2023-02-28T03:26:12;4.90;;;3.33;;
24891;SDS011;12954;50.688;10.908;2023-02-28T03:28:48;6.18;;;4.28;;
24891;SDS011;12954;50.688;10.908;2023-02-28T03:31:27;5.53;;;3.72;;
24891;SDS011;12954;50.688;10.908;2023-02-28T03:36:32;6.95;;;4.03;;
24891;SDS011;12954;50.688;10.908;2023-02-28T03:39:13;6.03;;;4.30;;
24891;SDS011;12954;50.688;10.908;2023-02-28T03:41:46;6.53;;;4.43;;
24891;SDS011;12954;50.688;10.908;2023-02-28T03:46:52;5.18;;;3.90;;
24891;SDS011;12954;50.688;10.908;2023-02-28T03:49:26;5.07;;;4.18;;
24891;SDS011;12954;50.688;10.908;2023-02-28T03:51:58;5.82;;;3.92;;
24891;SDS011;12954;50.688;10.908;2023-02-28T03:54:31;4.55;;;4.05;;
24891;SDS011;12954;50.688;10.908;2023-02-28T03:57:04;6.00;;;4.65;;
24891;SDS011;12954;50.688;10.908;2023-02-28T03:59:39;6.90;;;5.15;;
24891;SDS011;12954;50.688;10.908;2023-02-28T04:02:11;6.90;;;5.15;;
24891;SDS011;12954;50.688;10.908;2023-02-28T04:04:40;6.95;;;5.00;;
24891;SDS011;12954;50.688;10.908;2023-02-28T04:07:15;6.07;;;5.38;;
24891;SDS011;12954;50.688;10.908;2023-02-28T04:09:45;7.95;;;6.03;;
24891;SDS011;12954;50.688;10.908;2023-02-28T04:12:14;5.82;;;4.85;;
24891;SDS011;12954;50.688;10.908;2023-02-28T04:14:42;5.70;;;4.93;;
24891;SDS011;12954;50.688;10.908;2023-02-28T04:17:11;6.22;;;5.00;;
24891;SDS011;12954;50.688;10.908;2023-02-28T04:19:39;7.05;;;5.13;;
24891;SDS011;12954;50.688;10.908;2023-02-28T04:22:08;10.45;;;6.75;;
24891;SDS011;12954;50.688;10.908;2023-02-28T04:24:36;6.28;;;5.57;;
24891;SDS011;12954;50.688;10.908;2023-02-28T04:27:09;5.55;;;4.80;;
24891;SDS011;12954;50.688;10.908;2023-02-28T04:29:37;6.30;;;4.85;;
24891;SDS011;12954;50.688;10.908;2023-02-28T04:32:06;8.57;;;4.50;;
24891;SDS011;12954;50.688;10.908;2023-02-28T04:34:34;10.88;;;5.20;;
24891;SDS011;12954;50.688;10.908;2023-02-28T04:37:04;6.95;;;5.25;;
24891;SDS011;12954;50.688;10.908;2023-02-28T04:39:41;7.45;;;5.63;;
24891;SDS011;12954;50.688;10.908;2023-02-28T04:42:11;6.97;;;5.53;;
24891;SDS011;12954;50.688;10.908;2023-02-28T04:44:41;6.72;;;5.43;;
24891;SDS011;12954;50.688;10.908;2023-02-28T04:47:09;7.15;;;5.53;;
24891;SDS011;12954;50.688;10.908;2023-02-28T04:49:38;8.43;;;6.03;;
24891;SDS011;12954;50.688;10.908;2023-02-28T04:52:07;7.75;;;5.72;;
24891;SDS011;12954;50.688;10.908;2023-02-28T04:54:36;8.10;;;5.30;;
24891;SDS011;12954;50.688;10.908;2023-02-28T04:57:06;7.72;;;5.47;;
24891;SDS011;12954;50.688;10.908;2023-02-28T04:59:35;6.38;;;5.03;;
24891;SDS011;12954;50.688;10.908;2023-02-28T05:02:04;7.70;;;5.00;;
24891;SDS011;12954;50.688;10.908;2023-02-28T05:04:34;7.38;;;4.40;;
24891;SDS011;12954;50.688;10.908;2023-02-28T05:07:03;7.07;;;4.70;;
24891;SDS011;12954;50.688;10.908;2023-02-28T05:09:31;6.18;;;5.15;;
24891;SDS011;12954;50.688;10.908;2023-02-28T05:12:01;7.47;;;5.43;;
24891;SDS011;12954;50.688;10.908;2023-02-28T05:14:29;6.70;;;5.07;;
24891;SDS011;12954;50.688;10.908;2023-02-28T05:16:59;7.03;;;4.97;;
24891;SDS011;12954;50.688;10.908;2023-02-28T05:19:27;9.82;;;5.88;;
24891;SDS011;12954;50.688;10.908;2023-02-28T05:21:56;7.07;;;5.13;;
24891;SDS011;12954;50.688;10.908;2023-02-28T05:24:25;7.57;;;5.63;;
24891;SDS011;12954;50.688;10.908;2023-02-28T05:26:54;6.68;;;5.00;;
24891;SDS011;12954;50.688;10.908;2023-02-28T05:29:22;7.22;;;5.50;;
24891;SDS011;12954;50.688;10.908;2023-02-28T05:31:51;7.78;;;5.05;;
24891;SDS011;12954;50.688;10.908;2023-02-28T05:34:21;6.40;;;5.20;;
24891;SDS011;12954;50.688;10.908;2023-02-28T05:36:50;6.22;;;4.80;;
24891;SDS011;12954;50.688;10.908;2023-02-28T05:39:18;6.65;;;4.75;;
24891;SDS011;12954;50.688;10.908;2023-02-28T05:41:46;5.60;;;4.78;;
24891;SDS011;12954;50.688;10.908;2023-02-28T05:44:15;7.63;;;4.97;;
24891;SDS011;12954;50.688;10.908;2023-02-28T05:46:43;7.55;;;5.10;;
24891;SDS011;12954;50.688;10.908;2023-02-28T05:49:12;7.93;;;5.68;;
24891;SDS011;12954;50.688;10.908;2023-02-28T05:51:42;6.90;;;5.25;;
24891;SDS011;12954;50.688;10.908;2023-02-28T05:54:10;8.07;;;5.63;;
24891;SDS011;12954;50.688;10.908;2023-02-28T05:56:39;7.72;;;5.35;;
24891;SDS011;12954;50.688;10.908;2023-02-28T05:59:10;7.55;;;5.00;;
24891;SDS011;12954;50.688;10.908;2023-02-28T06:01:39;6.60;;;5.47;;
24891;SDS011;12954;50.688;10.908;2023-02-28T06:04:09;8.93;;;5.35;;
24891;SDS011;12954;50.688;10.908;2023-02-28T06:06:57;7.63;;;4.88;;
24891;SDS011;12954;50.688;10.908;2023-02-28T06:09:26;8.30;;;5.78;;
24891;SDS011;12954;50.688;10.908;2023-02-28T06:11:54;8.82;;;5.95;;
24891;SDS011;12954;50.688;10.908;2023-02-28T06:14:22;8.05;;;5.95;;
24891;SDS011;12954;50.688;10.908;2023-02-28T06:16:51;7.05;;;5.72;;
24891;SDS011;12954;50.688;10.908;2023-02-28T06:19:19;6.75;;;5.38;;
24891;SDS011;12954;50.688;10.908;2023-02-28T06:21:48;10.00;;;5.63;;
24891;SDS011;12954;50.688;10.908;2023-02-28T06:24:21;6.35;;;5.32;;
24891;SDS011;12954;50.688;10.908;2023-02-28T06:26:50;7.20;;;5.25;;
24891;SDS011;12954;50.688;10.908;2023-02-28T06:29:18;8.73;;;5.60;;
24891;SDS011;12954;50.688;10.908;2023-02-28T06:31:47;7.72;;;5.45;;
24891;SDS011;12954;50.688;10.908;2023-02-28T06:34:16;9.68;;;6.10;;
24891;SDS011;12954;50.688;10.908;2023-02-28T06:36:44;7.60;;;5.28;;
24891;SDS011;12954;50.688;10.908;2023-02-28T06:39:13;10.07;;;5.70;;
24891;SDS011;12954;50.688;10.908;2023-02-28T06:41:43;7.22;;;5.15;;
24891;SDS011;12954;50.688;10.908;2023-02-28T06:44:21;7.82;;;5.60;;
24891;SDS011;12954;50.688;10.908;2023-02-28T06:46:50;8.48;;;6.00;;
24891;SDS011;12954;50.688;10.908;2023-02-28T06:49:19;7.70;;;6.82;;
24891;SDS011;12954;50.688;10.908;2023-02-28T06:51:47;7.82;;;5.90;;
24891;SDS011;12954;50.688;10.908;2023-02-28T06:54:16;7.68;;;5.28;;
24891;SDS011;12954;50.688;10.908;2023-02-28T06:56:46;8.93;;;5.90;;
24891;SDS011;12954;50.688;10.908;2023-02-28T06:59:15;7.85;;;5.68;;
24891;SDS011;12954;50.688;10.908;2023-02-28T07:01:43;7.90;;;5.10;;
24891;SDS011;12954;50.688;10.908;2023-02-28T07:04:13;6.88;;;5.82;;
24891;SDS011;12954;50.688;10.908;2023-02-28T07:06:42;7.65;;;5.75;;
24891;SDS011;12954;50.688;10.908;2023-02-28T07:09:10;9.95;;;5.57;;
24891;SDS011;12954;50.688;10.908;2023-02-28T07:11:40;9.30;;;5.88;;
24891;SDS011;12954;50.688;10.908;2023-02-28T07:14:10;9.43;;;6.10;;
24891;SDS011;12954;50.688;10.908;2023-02-28T07:16:39;11.80;;;6.25;;
24891;SDS011;12954;50.688;10.908;2023-02-28T07:19:07;6.97;;;5.15;;
24891;SDS011;12954;50.688;10.908;2023-02-28T07:21:35;8.52;;;5.50;;
24891;SDS011;12954;50.688;10.908;2023-02-28T07:24:04;8.38;;;6.07;;
24891;SDS011;12954;50.688;10.908;2023-02-28T07:26:33;8.55;;;5.80;;
24891;SDS011;12954;50.688;10.908;2023-02-28T07:29:02;8.80;;;5.82;;
24891;SDS011;12954;50.688;10.908;2023-02-28T07:31:31;8.30;;;5.20;;
24891;SDS011;12954;50.688;10.908;2023-02-28T07:34:00;7.03;;;5.60;;
24891;SDS011;12954;50.688;10.908;2023-02-28T07:36:29;8.43;;;5.50;;
24891;SDS011;12954;50.688;10.908;2023-02-28T07:38:57;9.73;;;5.80;;
24891;SDS011;12954;50.688;10.908;2023-02-28T07:41:26;9.30;;;5.72;;
24891;SDS011;12954;50.688;10.908;2023-02-28T07:43:56;8.85;;;5.60;;
24891;SDS011;12954;50.688;10.908;2023-02-28T07:46:26;7.75;;;5.72;;
24891;SDS011;12954;50.688;10.908;2023-02-28T07:48:57;8.65;;;5.78;;
24891;SDS011;12954;50.688;10.908;2023-02-28T07:51:26;8.25;;;5.57;;
24891;SDS011;12954;50.688;10.908;2023-02-28T07:53:55;7.78;;;5.53;;
24891;SDS011;12954;50.688;10.908;2023-02-28T07:56:23;7.10;;;5.57;;
24891;SDS011;12954;50.688;10.908;2023-02-28T07:58:52;8.43;;;5.90;;
24891;SDS011;12954;50.688;10.908;2023-02-28T08:01:21;10.10;;;5.95;;
24891;SDS011;12954;50.688;10.908;2023-02-28T08:03:49;8.70;;;5.55;;
24891;SDS011;12954;50.688;10.908;2023-02-28T08:06:20;8.80;;;6.13;;
24891;SDS011;12954;50.688;10.908;2023-02-28T08:08:50;14.07;;;10.45;;
24891;SDS011;12954;50.688;10.908;2023-02-28T08:11:18;14.18;;;10.20;;
24891;SDS011;12954;50.688;10.908;2023-02-28T08:13:47;12.90;;;8.45;;
24891;SDS011;12954;50.688;10.908;2023-02-28T08:16:15;9.55;;;6.78;;
24891;SDS011;12954;50.688;10.908;2023-02-28T08:18:49;10.00;;;6.65;;
24891;SDS011;12954;50.688;10.908;2023-02-28T08:21:20;9.07;;;6.20;;
24891;SDS011;12954;50.688;10.908;2023-02-28T08:23:49;11.00;;;6.90;;
24891;SDS011;12954;50.688;10.908;2023-02-28T08:26:18;10.15;;;6.75;;
24891;SDS011;12954;50.688;10.908;2023-02-28T08:28:47;9.23;;;6.25;;
24891;SDS011;12954;50.688;10.908;2023-02-28T08:31:15;9.55;;;6.65;;
24891;SDS011;12954;50.688;10.908;2023-02-28T08:33:44;10.13;;;6.88;;
24891;SDS011;12954;50.688;10.908;2023-02-28T08:36:15;9.45;;;7.00;;
24891;SDS011;12954;50.688;10.908;2023-02-28T08:38:45;10.32;;;7.13;;
24891;SDS011;12954;50.688;10.908;2023-02-28T08:41:14;12.07;;;7.90;;
24891;SDS011;12954;50.688;10.908;2023-02-28T08:43:42;10.50;;;7.25;;
24891;SDS011;12954;50.688;10.908;2023-02-28T08:46:12;10.77;;;7.35;;
24891;SDS011;12954;50.688;10.908;2023-02-28T08:48:41;11.07;;;7.20;;
24891;SDS011;12954;50.688;10.908;2023-02-28T08:51:10;9.27;;;7.00;;
24891;SDS011;12954;50.688;10.908;2023-02-28T08:53:40;11.57;;;6.82;;
24891;SDS011;12954;50.688;10.908;2023-02-28T08:56:11;9.43;;;6.78;;
24891;SDS011;12954;50.688;10.908;2023-02-28T08:58:40;9.65;;;7.28;;
24891;SDS011;12954;50.688;10.908;2023-02-28T09:01:09;10.43;;;7.00;;
24891;SDS011;12954;50.688;10.908;2023-02-28T09:03:39;9.85;;;6.90;;
24891;SDS011;12954;50.688;10.908;2023-02-28T09:06:09;9.75;;;6.72;;
24891;SDS011;12954;50.688;10.908;2023-02-28T09:08:38;9.65;;;7.25;;
24891;SDS011;12954;50.688;10.908;2023-02-28T09:11:07;12.15;;;8.15;;
24891;SDS011;12954;50.688;10.908;2023-02-28T09:13:38;8.30;;;6.65;;
24891;SDS011;12954;50.688;10.908;2023-02-28T09:16:08;10.27;;;7.07;;
24891;SDS011;12954;50.688;10.908;2023-02-28T09:18:39;9.00;;;6.07;;
24891;SDS011;12954;50.688;10.908;2023-02-28T09:21:09;8.73;;;6.43;;
24891;SDS011;12954;50.688;10.908;2023-02-28T09:23:40;10.60;;;6.78;;
24891;SDS011;12954;50.688;10.908;2023-02-28T09:26:13;9.60;;;7.45;;
24891;SDS011;12954;50.688;10.908;2023-02-28T09:28:44;8.95;;;6.38;;
24891;SDS011;12954;50.688;10.908;2023-02-28T09:31:13;6.80;;;5.63;;
24891;SDS011;12954;50.688;10.908;2023-02-28T09:33:43;10.98;;;6.63;;
24891;SDS011;12954;50.688;10.908;2023-02-28T09:36:11;8.43;;;6.90;;
24891;SDS011;12954;50.688;10.908;2023-02-28T09:38:40;10.98;;;6.60;;
24891;SDS011;12954;50.688;10.908;2023-02-28T09:41:13;8.48;;;7.00;;
24891;SDS011;12954;50.688;10.908;2023-02-28T09:43:45;10.23;;;6.70;;
24891;SDS011;12954;50.688;10.908;2023-02-28T09:46:21;10.85;;;6.30;;
24891;SDS011;12954;50.688;10.908;2023-02-28T09:48:58;7.97;;;5.68;;
24891;SDS011;12954;50.688;10.908;2023-02-28T09:51:32;9.27;;;6.07;;
24891;SDS011;12954;50.688;10.908;2023-02-28T09:54:09;8.90;;;6.00;;
24891;SDS011;12954;50.688;10.908;2023-02-28T09:56:45;9.10;;;5.28;;
24891;SDS011;12954;50.688;10.908;2023-02-28T09:59:29;8.45;;;5.93;;
24891;SDS011;12954;50.688;10.908;2023-02-28T10:02:12;7.80;;;5.72;;
24891;SDS011;12954;50.688;10.908;2023-02-28T10:04:50;9.30;;;5.43;;
24891;SDS011;12954;50.688;10.908;2023-02-28T10:07:26;7.83;;;5.03;;
24891;SDS011;12954;50.688;10.908;2023-02-28T10:10:14;6.95;;;5.28;;
24891;SDS011;12954;50.688;10.908;2023-02-28T10:12:49;7.43;;;5.07;;
24891;SDS011;12954;50.688;10.908;2023-02-28T10:15:23;6.88;;;5.25;;
24891;SDS011;12954;50.688;10.908;2023-02-28T10:17:54;8.95;;;4.95;;
24891;SDS011;12954;50.688;10.908;2023-02-28T10:20:34;8.90;;;6.00;;
24891;SDS011;12954;50.688;10.908;2023-02-28T10:23:09;8.07;;;5.60;;
24891;SDS011;12954;50.688;10.908;2023-02-28T10:25:41;6.63;;;4.57;;
24891;SDS011;12954;50.688;10.908;2023-02-28T10:28:16;7.97;;;5.55;;
24891;SDS011;12954;50.688;10.908;2023-02-28T10:30:47;6.13;;;4.50;;
24891;SDS011;12954;50.688;10.908;2023-02-28T10:33:19;6.38;;;4.50;;
24891;SDS011;12954;50.688;10.908;2023-02-28T10:35:50;5.63;;;4.55;;
24891;SDS011;12954;50.688;10.908;2023-02-28T10:38:20;7.93;;;4.88;;
24891;SDS011;12954;50.688;10.908;2023-02-28T10:40:50;4.90;;;4.00;;
24891;SDS011;12954;50.688;10.908;2023-02-28T10:43:19;8.45;;;3.80;;
24891;SDS011;12954;50.688;10.908;2023-02-28T10:49:00;8.88;;;4.50;;
24891;SDS011;12954;50.688;10.908;2023-02-28T10:51:34;7.07;;;4.13;;
24891;SDS011;12954;50.688;10.908;2023-02-28T10:54:04;6.30;;;4.43;;
24891;SDS011;12954;50.688;10.908;2023-02-28T10:56:34;7.82;;;4.38;;
24891;SDS011;12954;50.688;10.908;2023-02-28T10:59:03;8.63;;;4.50;;
24891;SDS011;12954;50.688;10.908;2023-02-28T11:01:51;10.50;;;4.93;;
24891;SDS011;12954;50.688;10.908;2023-02-28T11:04:32;6.75;;;4.47;;
24891;SDS011;12954;50.688;10.908;2023-02-28T11:07:05;7.70;;;4.82;;
24891;SDS011;12954;50.688;10.908;2023-02-28T11:09:49;15.90;;;4.90;;
24891;SDS011;12954;50.688;10.908;2023-02-28T11:12:20;6.50;;;4.80;;
24891;SDS011;12954;50.688;10.908;2023-02-28T11:14:52;5.50;;;4.18;;
24891;SDS011;12954;50.688;10.908;2023-02-28T11:17:24;5.63;;;4.50;;
24891;SDS011;12954;50.688;10.908;2023-02-28T11:19:55;8.10;;;4.33;;
24891;SDS011;12954;50.688;10.908;2023-02-28T11:22:28;6.20;;;4.20;;
24891;SDS011;12954;50.688;10.908;2023-02-28T11:25:00;6.13;;;4.68;;
24891;SDS011;12954;50.688;10.908;2023-02-28T11:27:40;6.35;;;4.30;;
24891;SDS011;12954;50.688;10.908;2023-02-28T11:30:23;8.82;;;4.68;;
24891;SDS011;12954;50.688;10.908;2023-02-28T11:32:55;6.18;;;4.40;;
24891;SDS011;12954;50.688;10.908;2023-02-28T11:35:26;9.60;;;4.80;;
24891;SDS011;12954;50.688;10.908;2023-02-28T11:37:58;7.15;;;4.60;;
24891;SDS011;12954;50.688;10.908;2023-02-28T11:40:29;8.82;;;5.03;;
24891;SDS011;12954;50.688;10.908;2023-02-28T11:43:09;7.28;;;4.90;;
24891;SDS011;12954;50.688;10.908;2023-02-28T11:45:52;11.05;;;5.35;;
24891;SDS011;12954;50.688;10.908;2023-02-28T11:48:32;9.13;;;4.53;;
24891;SDS011;12954;50.688;10.908;2023-02-28T11:51:11;6.35;;;4.72;;
24891;SDS011;12954;50.688;10.908;2023-02-28T11:53:57;8.07;;;5.03;;
24891;SDS011;12954;50.688;10.908;2023-02-28T11:59:15;10.13;;;5.45;;
24891;SDS011;12954;50.688;10.908;2023-02-28T12:02:03;9.27;;;5.60;;
24891;SDS011;12954;50.688;10.908;2023-02-28T12:04:48;6.72;;;5.15;;
24891;SDS011;12954;50.688;10.908;2023-02-28T12:07:28;9.93;;;5.50;;
24891;SDS011;12954;50.688;10.908;2023-02-28T12:10:04;7.85;;;4.78;;
24891;SDS011;12954;50.688;10.908;2023-02-28T12:12:47;10.30;;;5.13;;
24891;SDS011;12954;50.688;10.908;2023-02-28T12:15:33;6.20;;;5.47;;
24891;SDS011;12954;50.688;10.908;2023-02-28T12:18:18;7.13;;;5.15;;
24891;SDS011;12954;50.688;10.908;2023-02-28T12:20:58;7.45;;;5.50;;
24891;SDS011;12954;50.688;10.908;2023-02-28T12:26:27;7.38;;;5.03;;
24891;SDS011;12954;50.688;10.908;2023-02-28T12:29:04;9.48;;;5.57;;
24891;SDS011;12954;50.688;10.908;2023-02-28T12:31:40;14.20;;;5.30;;
24891;SDS011;12954;50.688;10.908;2023-02-28T12:36:46;6.47;;;4.90;;
24891;SDS011;12954;50.688;10.908;2023-02-28T12:39:16;7.53;;;4.35;;
24891;SDS011;12954;50.688;10.908;2023-02-28T12:41:51;7.90;;;4.60;;
24891;SDS011;12954;50.688;10.908;2023-02-28T12:44:26;7.55;;;4.88;;
24891;SDS011;12954;50.688;10.908;2023-02-28T12:49:32;6.35;;;5.38;;
24891;SDS011;12954;50.688;10.908;2023-02-28T12:52:06;7.10;;;4.88;;
24891;SDS011;12954;50.688;10.908;2023-02-28T12:54:39;7.80;;;4.38;;
24891;SDS011;12954;50.688;10.908;2023-02-28T12:57:15;9.55;;;5.13;;
24891;SDS011;12954;50.688;10.908;2023-02-28T12:59:52;13.30;;;7.00;;
24891;SDS011;12954;50.688;10.908;2023-02-28T13:11:29;7.43;;;5.55;;
24891;SDS011;12954;50.688;10.908;2023-02-28T13:14:01;10.00;;;6.60;;
24891;SDS011;12954;50.688;10.908;2023-02-28T13:19:21;7.82;;;5.70;;
24891;SDS011;12954;50.688;10.908;2023-02-28T13:21:51;10.20;;;6.30;;
24891;SDS011;12954;50.688;10.908;2023-02-28T13:33:24;9.40;;;6.13;;
24891;SDS011;12954;50.688;10.908;2023-02-28T13:36:06;7.43;;;5.68;;
24891;SDS011;12954;50.688;10.908;2023-02-28T13:38:38;8.65;;;5.45;;
24891;SDS011;12954;50.688;10.908;2023-02-28T13:44:26;9.82;;;5.82;;
24891;SDS011;12954;50.688;10.908;2023-02-28T13:50:15;10.73;;;6.10;;
24891;SDS011;12954;50.688;10.908;2023-02-28T13:55:52;9.25;;;6.22;;
24891;SDS011;12954;50.688;10.908;2023-02-28T13:58:35;9.00;;;5.75;;
24891;SDS011;12954;50.688;10.908;2023-02-28T14:01:24;10.95;;;7.00;;
24891;SDS011;12954;50.688;10.908;2023-02-28T14:04:22;8.80;;;6.93;;
24891;SDS011;12954;50.688;10.908;2023-02-28T14:07:16;11.40;;;7.10;;
24891;SDS011;12954;50.688;10.908;2023-02-28T14:09:49;8.75;;;6.70;;
24891;SDS011;12954;50.688;10.908;2023-02-28T14:15:46;10.35;;;6.38;;
24891;SDS011;12954;50.688;10.908;2023-02-28T14:18:22;13.80;;;7.40;;
24891;SDS011;12954;50.688;10.908;2023-02-28T14:20:54;9.48;;;6.40;;
24891;SDS011;12954;50.688;10.908;2023-02-28T14:23:52;8.93;;;6.25;;
24891;SDS011;12954;50.688;10.908;2023-02-28T14:26:57;10.45;;;7.15;;
24891;SDS011;12954;50.688;10.908;2023-02-28T14:32:37;13.07;;;7.95;;
24891;SDS011;12954;50.688;10.908;2023-02-28T14:35:35;11.48;;;8.57;;
24891;SDS011;12954;50.688;10.908;2023-02-28T14:38:18;9.00;;;7.07;;
24891;SDS011;12954;50.688;10.908;2023-02-28T14:40:51;10.27;;;7.38;;
24891;SDS011;12954;50.688;10.908;2023-02-28T14:43:23;9.90;;;7.35;;
24891;SDS011;12954;50.688;10.908;2023-02-28T14:45:52;9.10;;;7.35;;
24891;SDS011;12954;50.688;10.908;2023-02-28T14:48:23;11.80;;;7.45;;
24891;SDS011;12954;50.688;10.908;2023-02-28T14:50:54;10.30;;;7.28;;
24891;SDS011;12954;50.688;10.908;2023-02-28T14:53:26;12.43;;;7.28;;
24891;SDS011;12954;50.688;10.908;2023-02-28T14:55:56;8.70;;;6.45;;
24891;SDS011;12954;50.688;10.908;2023-02-28T14:58:27;10.20;;;7.20;;
24891;SDS011;12954;50.688;10.908;2023-02-28T15:00:58;10.98;;;7.60;;
24891;SDS011;12954;50.688;10.908;2023-02-28T15:03:30;12.07;;;7.72;;
24891;SDS011;12954;50.688;10.908;2023-02-28T15:06:02;9.88;;;7.78;;
24891;SDS011;12954;50.688;10.908;2023-02-28T15:08:32;14.15;;;7.30;;
24891;SDS011;12954;50.688;10.908;2023-02-28T15:11:03;11.23;;;7.20;;
24891;SDS011;12954;50.688;10.908;2023-02-28T15:13:36;11.90;;;7.78;;
24891;SDS011;12954;50.688;10.908;2023-02-28T15:18:41;9.52;;;7.80;;
24891;SDS011;12954;50.688;10.908;2023-02-28T15:21:17;11.00;;;7.82;;
24891;SDS011;12954;50.688;10.908;2023-02-28T15:23:49;9.57;;;7.55;;
24891;SDS011;12954;50.688;10.908;2023-02-28T15:26:22;15.88;;;8.13;;
24891;SDS011;12954;50.688;10.908;2023-02-28T15:28:57;14.15;;;7.65;;
24891;SDS011;12954;50.688;10.908;2023-02-28T15:31:28;13.68;;;8.02;;
24891;SDS011;12954;50.688;10.908;2023-02-28T15:34:19;11.70;;;7.88;;
24891;SDS011;12954;50.688;10.908;2023-02-28T15:36:55;11.48;;;7.65;;
24891;SDS011;12954;50.688;10.908;2023-02-28T15:39:24;9.95;;;7.75;;
24891;SDS011;12954;50.688;10.908;2023-02-28T15:42:09;15.77;;;8.05;;
24891;SDS011;12954;50.688;10.908;2023-02-28T15:44:39;13.15;;;8.07;;
24891;SDS011;12954;50.688;10.908;2023-02-28T15:47:16;10.57;;;7.82;;
24891;SDS011;12954;50.688;10.908;2023-02-28T15:49:47;9.65;;;7.15;;
24891;SDS011;12954;50.688;10.908;2023-02-28T15:52:21;10.50;;;7.25;;
24891;SDS011;12954;50.688;10.908;2023-02-28T15:54:55;9.73;;;7.20;;
24891;SDS011;12954;50.688;10.908;2023-02-28T15:57:25;11.50;;;7.20;;
24891;SDS011;12954;50.688;10.908;2023-02-28T15:59:56;9.95;;;7.72;;
24891;SDS011;12954;50.688;10.908;2023-02-28T16:02:30;10.65;;;7.40;;
24891;SDS011;12954;50.688;10.908;2023-02-28T16:05:01;12.20;;;8.00;;
24891;SDS011;12954;50.688;10.908;2023-02-28T16:07:48;12.73;;;8.30;;
24891;SDS011;12954;50.688;10.908;2023-02-28T16:10:16;9.88;;;7.50;;